Terminal Aerodrome Forecast
Issued by NWS

Current Version | Previous Version | Text Only | Print | Product List | Glossary On
Versions: 1 2 3 4 5 6 7 8 9 10 11 12 13
000
FTUS46 KSGX 221723
TAFPSP
TAF
KPSP 221723Z 2218/2318 31010KT P6SM FEW100 SCT200
     FM222000 32015G25KT P6SM FEW100 BKN200
     FM230300 32012G20KT P6SM FEW100 SCT200
     FM230600 32009KT P6SM SCT200
     FM231200 32006KT P6SM FEW200=

USA.gov is the U.S. government's official web portal to all federal, state and local government web resources and services.